sensor_id;sensor_type;location;lat;lon;timestamp;temperature;humidity
27779;DHT22;30234;48.090;11.464;2023-07-13T00:03:58;17.50;99.90
27779;DHT22;30234;48.090;11.464;2023-07-13T00:08:00;17.60;99.90
27779;DHT22;30234;48.090;11.464;2023-07-13T00:17:44;17.60;99.90
27779;DHT22;30234;48.090;11.464;2023-07-13T00:21:45;17.60;99.90
27779;DHT22;30234;48.090;11.464;2023-07-13T00:25:46;17.60;99.90
27779;DHT22;30234;48.090;11.464;2023-07-13T00:29:46;17.50;99.90
27779;DHT22;30234;48.090;11.464;2023-07-13T00:33:47;17.40;99.90
27779;DHT22;30234;48.090;11.464;2023-07-13T00:37:48;17.40;99.90
27779;DHT22;30234;48.090;11.464;2023-07-13T00:41:50;17.30;99.90
27779;DHT22;30234;48.090;11.464;2023-07-13T00:49:52;17.40;99.90
27779;DHT22;30234;48.090;11.464;2023-07-13T00:53:54;17.40;99.90
27779;DHT22;30234;48.090;11.464;2023-07-13T00:57:57;17.40;99.90
27779;DHT22;30234;48.090;11.464;2023-07-13T01:01:58;17.40;99.90
27779;DHT22;30234;48.090;11.464;2023-07-13T01:06:00;17.50;99.90
27779;DHT22;30234;48.090;11.464;2023-07-13T01:10:01;17.40;99.90
27779;DHT22;30234;48.090;11.464;2023-07-13T01:14:02;17.30;99.90
27779;DHT22;30234;48.090;11.464;2023-07-13T01:18:05;17.30;99.90
27779;DHT22;30234;48.090;11.464;2023-07-13T01:22:14;17.30;99.90
27779;DHT22;30234;48.090;11.464;2023-07-13T01:26:16;17.20;99.90
27779;DHT22;30234;48.090;11.464;2023-07-13T01:30:17;17.30;99.90
27779;DHT22;30234;48.090;11.464;2023-07-13T01:34:18;17.30;99.90
27779;DHT22;30234;48.090;11.464;2023-07-13T01:38:21;17.40;99.90
27779;DHT22;30234;48.090;11.464;2023-07-13T01:42:23;17.40;99.90
27779;DHT22;30234;48.090;11.464;2023-07-13T01:46:23;17.40;99.90
27779;DHT22;30234;48.090;11.464;2023-07-13T01:50:25;17.40;99.90
27779;DHT22;30234;48.090;11.464;2023-07-13T01:54:26;17.40;99.90
27779;DHT22;30234;48.090;11.464;2023-07-13T01:58:27;17.40;99.90
27779;DHT22;30234;48.090;11.464;2023-07-13T02:02:28;17.30;99.90
27779;DHT22;30234;48.090;11.464;2023-07-13T02:06:30;17.30;99.90
27779;DHT22;30234;48.090;11.464;2023-07-13T02:10:31;17.20;99.90
27779;DHT22;30234;48.090;11.464;2023-07-13T02:14:32;17.30;99.90
27779;DHT22;30234;48.090;11.464;2023-07-13T02:18:33;17.40;99.90
27779;DHT22;30234;48.090;11.464;2023-07-13T02:22:33;17.40;99.90
27779;DHT22;30234;48.090;11.464;2023-07-13T02:26:35;17.40;99.90
27779;DHT22;30234;48.090;11.464;2023-07-13T02:30:36;17.50;99.90
27779;DHT22;30234;48.090;11.464;2023-07-13T02:34:40;17.50;99.90
27779;DHT22;30234;48.090;11.464;2023-07-13T02:38:42;17.60;99.90
27779;DHT22;30234;48.090;11.464;2023-07-13T02:42:44;17.60;99.90
27779;DHT22;30234;48.090;11.464;2023-07-13T02:46:45;17.60;99.90
27779;DHT22;30234;48.090;11.464;2023-07-13T02:50:46;17.50;99.90
27779;DHT22;30234;48.090;11.464;2023-07-13T02:54:47;17.30;99.90
27779;DHT22;30234;48.090;11.464;2023-07-13T02:58:48;16.90;99.90
27779;DHT22;30234;48.090;11.464;2023-07-13T03:02:48;16.80;99.90
27779;DHT22;30234;48.090;11.464;2023-07-13T03:06:49;16.70;99.90
27779;DHT22;30234;48.090;11.464;2023-07-13T03:10:59;16.70;99.90
27779;DHT22;30234;48.090;11.464;2023-07-13T03:15:04;16.60;99.90
27779;DHT22;30234;48.090;11.464;2023-07-13T03:19:05;16.50;99.90
27779;DHT22;30234;48.090;11.464;2023-07-13T03:23:06;16.50;99.90
27779;DHT22;30234;48.090;11.464;2023-07-13T03:27:07;16.40;99.90
27779;DHT22;30234;48.090;11.464;2023-07-13T03:31:15;16.40;99.90
27779;DHT22;30234;48.090;11.464;2023-07-13T03:35:18;16.40;99.90
27779;DHT22;30234;48.090;11.464;2023-07-13T03:39:19;16.40;99.90
27779;DHT22;30234;48.090;11.464;2023-07-13T03:43:20;16.40;99.90
27779;DHT22;30234;48.090;11.464;2023-07-13T03:47:21;16.40;99.90
27779;DHT22;30234;48.090;11.464;2023-07-13T03:51:21;16.40;99.90
27779;DHT22;30234;48.090;11.464;2023-07-13T03:55:22;16.20;99.90
27779;DHT22;30234;48.090;11.464;2023-07-13T03:59:23;16.00;99.90
27779;DHT22;30234;48.090;11.464;2023-07-13T04:03:25;16.00;99.90
27779;DHT22;30234;48.090;11.464;2023-07-13T04:07:26;16.00;99.90
27779;DHT22;30234;48.090;11.464;2023-07-13T04:11:29;16.00;99.90
27779;DHT22;30234;48.090;11.464;2023-07-13T04:15:32;16.10;99.90
27779;DHT22;30234;48.090;11.464;2023-07-13T04:19:33;16.10;99.90
27779;DHT22;30234;48.090;11.464;2023-07-13T04:23:34;16.20;99.90
27779;DHT22;30234;48.090;11.464;2023-07-13T04:27:34;16.20;99.90
27779;DHT22;30234;48.090;11.464;2023-07-13T04:31:35;16.20;99.90
27779;DHT22;30234;48.090;11.464;2023-07-13T04:35:36;16.30;99.90
27779;DHT22;30234;48.090;11.464;2023-07-13T04:39:37;16.40;99.90
27779;DHT22;30234;48.090;11.464;2023-07-13T04:43:38;16.30;99.90
27779;DHT22;30234;48.090;11.464;2023-07-13T04:47:39;16.30;99.90
27779;DHT22;30234;48.090;11.464;2023-07-13T04:51:40;16.30;99.90
27779;DHT22;30234;48.090;11.464;2023-07-13T04:55:41;16.70;99.90
27779;DHT22;30234;48.090;11.464;2023-07-13T04:59:42;16.50;99.90
27779;DHT22;30234;48.090;11.464;2023-07-13T05:03:43;16.50;99.90
27779;DHT22;30234;48.090;11.464;2023-07-13T05:07:44;16.60;99.90
27779;DHT22;30234;48.090;11.464;2023-07-13T05:11:44;16.60;99.90
27779;DHT22;30234;48.090;11.464;2023-07-13T05:15:46;16.60;99.90
27779;DHT22;30234;48.090;11.464;2023-07-13T05:19:48;16.70;99.90
27779;DHT22;30234;48.090;11.464;2023-07-13T05:23:50;16.60;99.90
27779;DHT22;30234;48.090;11.464;2023-07-13T05:27:50;16.70;99.90
27779;DHT22;30234;48.090;11.464;2023-07-13T05:31:51;16.80;99.90
27779;DHT22;30234;48.090;11.464;2023-07-13T05:35:52;16.80;99.90
27779;DHT22;30234;48.090;11.464;2023-07-13T05:39:54;16.90;99.90
27779;DHT22;30234;48.090;11.464;2023-07-13T05:43:55;17.10;99.90
27779;DHT22;30234;48.090;11.464;2023-07-13T05:47:55;17.20;99.90
27779;DHT22;30234;48.090;11.464;2023-07-13T05:51:57;17.40;99.90
27779;DHT22;30234;48.090;11.464;2023-07-13T05:55:58;18.00;99.90
27779;DHT22;30234;48.090;11.464;2023-07-13T05:59:59;18.50;99.90
27779;DHT22;30234;48.090;11.464;2023-07-13T06:03:59;18.80;99.90
27779;DHT22;30234;48.090;11.464;2023-07-13T06:08:00;18.90;99.90
27779;DHT22;30234;48.090;11.464;2023-07-13T06:12:01;18.90;99.90
27779;DHT22;30234;48.090;11.464;2023-07-13T06:16:03;18.90;99.90
27779;DHT22;30234;48.090;11.464;2023-07-13T06:20:05;18.80;99.90
27779;DHT22;30234;48.090;11.464;2023-07-13T06:24:07;19.80;99.90
27779;DHT22;30234;48.090;11.464;2023-07-13T06:28:08;20.90;99.90
27779;DHT22;30234;48.090;11.464;2023-07-13T06:32:09;21.00;99.90
27779;DHT22;30234;48.090;11.464;2023-07-13T06:36:10;20.70;99.90
27779;DHT22;30234;48.090;11.464;2023-07-13T06:40:12;20.90;99.90
27779;DHT22;30234;48.090;11.464;2023-07-13T06:44:13;20.20;99.90
27779;DHT22;30234;48.090;11.464;2023-07-13T06:48:14;19.80;99.90
27779;DHT22;30234;48.090;11.464;2023-07-13T06:52:16;19.60;99.90
27779;DHT22;30234;48.090;11.464;2023-07-13T06:56:17;19.50;99.90
27779;DHT22;30234;48.090;11.464;2023-07-13T07:00:18;19.40;99.90
27779;DHT22;30234;48.090;11.464;2023-07-13T07:04:19;19.50;99.90
27779;DHT22;30234;48.090;11.464;2023-07-13T07:08:20;19.70;99.90
27779;DHT22;30234;48.090;11.464;2023-07-13T07:12:21;19.90;99.90
27779;DHT22;30234;48.090;11.464;2023-07-13T07:16:22;20.10;99.90
27779;DHT22;30234;48.090;11.464;2023-07-13T07:20:25;20.00;99.90
27779;DHT22;30234;48.090;11.464;2023-07-13T07:24:27;20.10;99.90
27779;DHT22;30234;48.090;11.464;2023-07-13T07:28:28;20.10;99.90
27779;DHT22;30234;48.090;11.464;2023-07-13T07:32:30;19.90;99.90
27779;DHT22;30234;48.090;11.464;2023-07-13T07:36:31;19.60;99.90
27779;DHT22;30234;48.090;11.464;2023-07-13T07:40:37;19.40;99.90
27779;DHT22;30234;48.090;11.464;2023-07-13T07:44:40;19.30;99.90
27779;DHT22;30234;48.090;11.464;2023-07-13T07:48:41;19.00;99.90
27779;DHT22;30234;48.090;11.464;2023-07-13T07:52:42;19.10;99.90
27779;DHT22;30234;48.090;11.464;2023-07-13T07:56:44;18.90;99.90
27779;DHT22;30234;48.090;11.464;2023-07-13T08:00:45;18.80;99.90
27779;DHT22;30234;48.090;11.464;2023-07-13T08:04:46;18.80;99.90
27779;DHT22;30234;48.090;11.464;2023-07-13T08:08:47;18.60;99.90
27779;DHT22;30234;48.090;11.464;2023-07-13T08:12:48;18.40;99.90
27779;DHT22;30234;48.090;11.464;2023-07-13T08:16:49;18.10;99.90
27779;DHT22;30234;48.090;11.464;2023-07-13T08:20:50;17.90;99.90
27779;DHT22;30234;48.090;11.464;2023-07-13T08:24:51;17.90;99.90
27779;DHT22;30234;48.090;11.464;2023-07-13T08:28:56;17.90;99.90
27779;DHT22;30234;48.090;11.464;2023-07-13T08:32:57;17.90;99.90
27779;DHT22;30234;48.090;11.464;2023-07-13T08:36:58;17.90;99.90
27779;DHT22;30234;48.090;11.464;2023-07-13T08:40:59;17.80;99.90
27779;DHT22;30234;48.090;11.464;2023-07-13T08:45:17;18.10;99.90
27779;DHT22;30234;48.090;11.464;2023-07-13T08:49:22;18.20;99.90
27779;DHT22;30234;48.090;11.464;2023-07-13T08:53:29;18.50;99.90
27779;DHT22;30234;48.090;11.464;2023-07-13T08:57:33;18.70;99.90
27779;DHT22;30234;48.090;11.464;2023-07-13T09:02:09;18.80;99.90
27779;DHT22;30234;48.090;11.464;2023-07-13T09:06:43;19.10;99.90
27779;DHT22;30234;48.090;11.464;2023-07-13T09:11:26;19.30;99.90
27779;DHT22;30234;48.090;11.464;2023-07-13T09:15:40;19.60;99.90
27779;DHT22;30234;48.090;11.464;2023-07-13T09:19:47;20.20;99.90
27779;DHT22;30234;48.090;11.464;2023-07-13T09:23:55;20.50;99.90
27779;DHT22;30234;48.090;11.464;2023-07-13T09:28:22;20.30;99.90
27779;DHT22;30234;48.090;11.464;2023-07-13T09:32:26;20.80;99.90
27779;DHT22;30234;48.090;11.464;2023-07-13T09:36:30;20.80;99.90
27779;DHT22;30234;48.090;11.464;2023-07-13T09:44:59;20.10;99.90
27779;DHT22;30234;48.090;11.464;2023-07-13T09:49:02;20.50;99.90
27779;DHT22;30234;48.090;11.464;2023-07-13T09:53:03;21.20;99.90
27779;DHT22;30234;48.090;11.464;2023-07-13T09:57:13;21.60;99.90
27779;DHT22;30234;48.090;11.464;2023-07-13T10:01:33;22.20;99.90
27779;DHT22;30234;48.090;11.464;2023-07-13T10:05:42;22.70;99.90
27779;DHT22;30234;48.090;11.464;2023-07-13T10:09:44;24.00;99.90
27779;DHT22;30234;48.090;11.464;2023-07-13T10:13:52;25.20;99.90
27779;DHT22;30234;48.090;11.464;2023-07-13T10:18:00;27.20;99.90
27779;DHT22;30234;48.090;11.464;2023-07-13T10:22:24;27.80;99.90
27779;DHT22;30234;48.090;11.464;2023-07-13T10:26:33;28.40;97.40
27779;DHT22;30234;48.090;11.464;2023-07-13T10:30:41;29.20;94.60
27779;DHT22;30234;48.090;11.464;2023-07-13T10:34:46;28.00;89.50
27779;DHT22;30234;48.090;11.464;2023-07-13T10:38:51;29.30;87.40
27779;DHT22;30234;48.090;11.464;2023-07-13T10:42:53;30.10;80.10
27779;DHT22;30234;48.090;11.464;2023-07-13T10:47:00;29.90;75.60
27779;DHT22;30234;48.090;11.464;2023-07-13T10:51:16;30.70;72.60
27779;DHT22;30234;48.090;11.464;2023-07-13T10:55:37;31.30;67.60
27779;DHT22;30234;48.090;11.464;2023-07-13T11:04:18;30.00;66.70
27779;DHT22;30234;48.090;11.464;2023-07-13T11:08:33;30.00;65.10
27779;DHT22;30234;48.090;11.464;2023-07-13T11:16:48;30.00;68.60
27779;DHT22;30234;48.090;11.464;2023-07-13T11:20:49;32.30;61.00
27779;DHT22;30234;48.090;11.464;2023-07-13T11:24:57;31.60;62.80
27779;DHT22;30234;48.090;11.464;2023-07-13T11:29:53;30.60;63.50
27779;DHT22;30234;48.090;11.464;2023-07-13T11:37:45;29.60;66.20
27779;DHT22;30234;48.090;11.464;2023-07-13T11:41:56;31.50;63.50
27779;DHT22;30234;48.090;11.464;2023-07-13T11:45:59;30.90;61.20
27779;DHT22;30234;48.090;11.464;2023-07-13T11:50:23;30.00;61.30
27779;DHT22;30234;48.090;11.464;2023-07-13T11:54:28;29.20;62.90
27779;DHT22;30234;48.090;11.464;2023-07-13T11:58:31;29.60;60.90
27779;DHT22;30234;48.090;11.464;2023-07-13T12:02:34;29.80;61.70
27779;DHT22;30234;48.090;11.464;2023-07-13T12:06:37;29.40;61.10
27779;DHT22;30234;48.090;11.464;2023-07-13T12:10:39;28.30;62.80
27779;DHT22;30234;48.090;11.464;2023-07-13T12:14:41;27.80;66.50
27779;DHT22;30234;48.090;11.464;2023-07-13T12:18:43;27.30;67.50
27779;DHT22;30234;48.090;11.464;2023-07-13T12:22:49;27.30;69.20
27779;DHT22;30234;48.090;11.464;2023-07-13T12:31:01;28.50;64.30
27779;DHT22;30234;48.090;11.464;2023-07-13T12:35:17;28.80;67.20
27779;DHT22;30234;48.090;11.464;2023-07-13T12:43:22;28.60;63.10
27779;DHT22;30234;48.090;11.464;2023-07-13T12:47:24;28.10;64.10
27779;DHT22;30234;48.090;11.464;2023-07-13T12:51:26;28.30;66.40
27779;DHT22;30234;48.090;11.464;2023-07-13T12:55:28;28.10;65.90
27779;DHT22;30234;48.090;11.464;2023-07-13T12:59:33;29.10;63.10
27779;DHT22;30234;48.090;11.464;2023-07-13T13:03:36;30.80;59.90
27779;DHT22;30234;48.090;11.464;2023-07-13T13:07:38;30.50;58.80
27779;DHT22;30234;48.090;11.464;2023-07-13T13:11:39;30.00;60.30
27779;DHT22;30234;48.090;11.464;2023-07-13T13:15:41;28.90;61.00
27779;DHT22;30234;48.090;11.464;2023-07-13T13:19:41;28.20;62.80
27779;DHT22;30234;48.090;11.464;2023-07-13T13:23:42;28.10;61.60
27779;DHT22;30234;48.090;11.464;2023-07-13T13:27:45;29.40;63.00
27779;DHT22;30234;48.090;11.464;2023-07-13T13:31:47;29.10;58.90
27779;DHT22;30234;48.090;11.464;2023-07-13T13:35:48;28.40;60.00
27779;DHT22;30234;48.090;11.464;2023-07-13T13:39:50;27.80;60.20
27779;DHT22;30234;48.090;11.464;2023-07-13T13:43:52;28.00;62.40
27779;DHT22;30234;48.090;11.464;2023-07-13T13:47:54;26.90;65.10
27779;DHT22;30234;48.090;11.464;2023-07-13T13:51:55;27.00;65.00
27779;DHT22;30234;48.090;11.464;2023-07-13T13:55:56;28.30;64.00
27779;DHT22;30234;48.090;11.464;2023-07-13T13:59:57;28.80;61.30
27779;DHT22;30234;48.090;11.464;2023-07-13T14:03:58;28.10;63.40
27779;DHT22;30234;48.090;11.464;2023-07-13T14:07:59;27.70;60.90
27779;DHT22;30234;48.090;11.464;2023-07-13T14:12:00;27.60;61.80
27779;DHT22;30234;48.090;11.464;2023-07-13T14:16:22;28.60;62.10
27779;DHT22;30234;48.090;11.464;2023-07-13T14:20:30;28.50;60.40
27779;DHT22;30234;48.090;11.464;2023-07-13T14:24:31;27.50;60.70
27779;DHT22;30234;48.090;11.464;2023-07-13T14:28:32;27.90;61.30
27779;DHT22;30234;48.090;11.464;2023-07-13T14:32:33;28.00;60.60
27779;DHT22;30234;48.090;11.464;2023-07-13T14:36:39;28.50;59.60
27779;DHT22;30234;48.090;11.464;2023-07-13T14:40:42;28.10;60.20
27779;DHT22;30234;48.090;11.464;2023-07-13T14:44:44;27.60;61.40
27779;DHT22;30234;48.090;11.464;2023-07-13T14:48:46;28.30;59.50
27779;DHT22;30234;48.090;11.464;2023-07-13T14:52:51;28.10;59.90
27779;DHT22;30234;48.090;11.464;2023-07-13T14:57:01;28.10;60.50
27779;DHT22;30234;48.090;11.464;2023-07-13T15:01:02;28.20;60.80
27779;DHT22;30234;48.090;11.464;2023-07-13T15:05:13;28.50;59.50
27779;DHT22;30234;48.090;11.464;2023-07-13T15:09:14;29.50;60.50
27779;DHT22;30234;48.090;11.464;2023-07-13T15:13:20;30.40;57.00
27779;DHT22;30234;48.090;11.464;2023-07-13T15:17:36;30.10;57.10
27779;DHT22;30234;48.090;11.464;2023-07-13T15:21:38;30.10;56.10
27779;DHT22;30234;48.090;11.464;2023-07-13T15:25:40;29.80;56.50
27779;DHT22;30234;48.090;11.464;2023-07-13T15:29:42;29.40;56.60
27779;DHT22;30234;48.090;11.464;2023-07-13T15:33:43;30.10;57.50
27779;DHT22;30234;48.090;11.464;2023-07-13T15:37:44;29.80;56.70
27779;DHT22;30234;48.090;11.464;2023-07-13T15:41:47;29.70;57.60
27779;DHT22;30234;48.090;11.464;2023-07-13T15:45:48;29.30;56.30
27779;DHT22;30234;48.090;11.464;2023-07-13T15:49:51;29.50;56.30
27779;DHT22;30234;48.090;11.464;2023-07-13T15:53:54;30.00;56.30
27779;DHT22;30234;48.090;11.464;2023-07-13T15:57:57;29.90;55.70
27779;DHT22;30234;48.090;11.464;2023-07-13T16:01:58;29.40;56.50
27779;DHT22;30234;48.090;11.464;2023-07-13T16:05:59;28.70;57.80
27779;DHT22;30234;48.090;11.464;2023-07-13T16:10:00;27.70;59.60
27779;DHT22;30234;48.090;11.464;2023-07-13T16:14:01;27.20;60.50
27779;DHT22;30234;48.090;11.464;2023-07-13T16:18:02;27.40;60.80
27779;DHT22;30234;48.090;11.464;2023-07-13T16:22:08;28.10;59.20
27779;DHT22;30234;48.090;11.464;2023-07-13T16:30:42;28.00;59.30
27779;DHT22;30234;48.090;11.464;2023-07-13T16:34:43;28.20;59.80
27779;DHT22;30234;48.090;11.464;2023-07-13T16:38:45;28.20;59.10
27779;DHT22;30234;48.090;11.464;2023-07-13T16:42:46;27.90;59.30
27779;DHT22;30234;48.090;11.464;2023-07-13T16:46:48;27.90;59.40
27779;DHT22;30234;48.090;11.464;2023-07-13T16:50:53;27.30;59.10
27779;DHT22;30234;48.090;11.464;2023-07-13T16:54:55;26.90;61.30
27779;DHT22;30234;48.090;11.464;2023-07-13T16:58:56;26.10;62.80
27779;DHT22;30234;48.090;11.464;2023-07-13T17:02:59;25.90;64.70
27779;DHT22;30234;48.090;11.464;2023-07-13T17:07:02;25.70;63.60
27779;DHT22;30234;48.090;11.464;2023-07-13T17:11:05;25.20;65.00
27779;DHT22;30234;48.090;11.464;2023-07-13T17:15:09;24.70;66.40
27779;DHT22;30234;48.090;11.464;2023-07-13T17:19:11;24.40;68.40
27779;DHT22;30234;48.090;11.464;2023-07-13T17:23:15;24.00;70.30
27779;DHT22;30234;48.090;11.464;2023-07-13T17:27:20;23.90;70.20
27779;DHT22;30234;48.090;11.464;2023-07-13T17:31:22;23.70;71.40
27779;DHT22;30234;48.090;11.464;2023-07-13T17:35:27;23.90;70.80
27779;DHT22;30234;48.090;11.464;2023-07-13T17:39:29;23.40;71.60
27779;DHT22;30234;48.090;11.464;2023-07-13T17:43:30;23.10;72.30
27779;DHT22;30234;48.090;11.464;2023-07-13T17:47:32;23.00;72.70
27779;DHT22;30234;48.090;11.464;2023-07-13T17:51:33;22.80;73.50
27779;DHT22;30234;48.090;11.464;2023-07-13T17:55:36;22.70;74.50
27779;DHT22;30234;48.090;11.464;2023-07-13T17:59:37;22.60;74.80
27779;DHT22;30234;48.090;11.464;2023-07-13T18:03:40;22.20;76.50
27779;DHT22;30234;48.090;11.464;2023-07-13T18:07:45;22.00;76.50
27779;DHT22;30234;48.090;11.464;2023-07-13T18:11:47;21.80;77.60
27779;DHT22;30234;48.090;11.464;2023-07-13T18:15:48;21.70;79.40
27779;DHT22;30234;48.090;11.464;2023-07-13T18:19:51;21.50;80.70
27779;DHT22;30234;48.090;11.464;2023-07-13T18:23:52;21.30;83.20
27779;DHT22;30234;48.090;11.464;2023-07-13T18:27:54;21.00;84.30
27779;DHT22;30234;48.090;11.464;2023-07-13T18:31:55;20.80;86.20
27779;DHT22;30234;48.090;11.464;2023-07-13T18:36:00;20.60;88.90
27779;DHT22;30234;48.090;11.464;2023-07-13T18:40:02;20.40;90.20
27779;DHT22;30234;48.090;11.464;2023-07-13T18:44:05;20.30;91.40
27779;DHT22;30234;48.090;11.464;2023-07-13T18:48:18;20.20;92.10
27779;DHT22;30234;48.090;11.464;2023-07-13T18:52:23;20.20;93.50
27779;DHT22;30234;48.090;11.464;2023-07-13T18:56:24;20.10;94.60
27779;DHT22;30234;48.090;11.464;2023-07-13T19:00:25;20.10;96.10
27779;DHT22;30234;48.090;11.464;2023-07-13T19:04:30;20.00;97.30
27779;DHT22;30234;48.090;11.464;2023-07-13T19:08:32;20.00;99.90
27779;DHT22;30234;48.090;11.464;2023-07-13T19:12:33;19.80;99.90
27779;DHT22;30234;48.090;11.464;2023-07-13T19:16:35;19.70;99.90
27779;DHT22;30234;48.090;11.464;2023-07-13T19:20:36;19.60;99.90
27779;DHT22;30234;48.090;11.464;2023-07-13T19:24:37;19.60;99.90
27779;DHT22;30234;48.090;11.464;2023-07-13T19:28:41;19.50;99.90
27779;DHT22;30234;48.090;11.464;2023-07-13T19:32:44;19.60;99.90
27779;DHT22;30234;48.090;11.464;2023-07-13T19:36:46;19.50;99.90
27779;DHT22;30234;48.090;11.464;2023-07-13T19:40:49;19.40;99.90
27779;DHT22;30234;48.090;11.464;2023-07-13T19:44:56;19.40;99.90
27779;DHT22;30234;48.090;11.464;2023-07-13T19:49:04;19.40;99.90
27779;DHT22;30234;48.090;11.464;2023-07-13T19:53:16;19.20;99.90
27779;DHT22;30234;48.090;11.464;2023-07-13T19:57:21;19.00;99.90
27779;DHT22;30234;48.090;11.464;2023-07-13T20:01:24;18.90;99.90
27779;DHT22;30234;48.090;11.464;2023-07-13T20:05:25;18.80;99.90
27779;DHT22;30234;48.090;11.464;2023-07-13T20:09:27;18.50;99.90
27779;DHT22;30234;48.090;11.464;2023-07-13T20:13:28;18.50;99.90
27779;DHT22;30234;48.090;11.464;2023-07-13T20:17:37;18.50;99.90
27779;DHT22;30234;48.090;11.464;2023-07-13T20:21:39;18.30;99.90
27779;DHT22;30234;48.090;11.464;2023-07-13T20:25:41;18.30;99.90
27779;DHT22;30234;48.090;11.464;2023-07-13T20:29:45;18.10;99.90
27779;DHT22;30234;48.090;11.464;2023-07-13T20:33:46;18.00;99.90
27779;DHT22;30234;48.090;11.464;2023-07-13T20:37:47;17.90;99.90
27779;DHT22;30234;48.090;11.464;2023-07-13T20:41:51;17.80;99.90
27779;DHT22;30234;48.090;11.464;2023-07-13T20:45:57;17.60;99.90
27779;DHT22;30234;48.090;11.464;2023-07-13T20:50:00;17.50;99.90
27779;DHT22;30234;48.090;11.464;2023-07-13T20:54:01;17.60;99.90
27779;DHT22;30234;48.090;11.464;2023-07-13T20:58:02;17.50;99.90
27779;DHT22;30234;48.090;11.464;2023-07-13T21:02:22;17.50;99.90
27779;DHT22;30234;48.090;11.464;2023-07-13T21:06:34;17.50;99.90
27779;DHT22;30234;48.090;11.464;2023-07-13T21:10:35;17.40;99.90
27779;DHT22;30234;48.090;11.464;2023-07-13T21:14:36;17.40;99.90
27779;DHT22;30234;48.090;11.464;2023-07-13T21:18:38;17.30;99.90
27779;DHT22;30234;48.090;11.464;2023-07-13T21:22:39;17.30;99.90
27779;DHT22;30234;48.090;11.464;2023-07-13T21:26:40;17.30;99.90
27779;DHT22;30234;48.090;11.464;2023-07-13T21:30:41;17.20;99.90
27779;DHT22;30234;48.090;11.464;2023-07-13T21:34:44;17.20;99.90
27779;DHT22;30234;48.090;11.464;2023-07-13T21:38:48;17.10;99.90
27779;DHT22;30234;48.090;11.464;2023-07-13T21:42:59;17.00;99.90
27779;DHT22;30234;48.090;11.464;2023-07-13T21:47:00;16.80;99.90
27779;DHT22;30234;48.090;11.464;2023-07-13T21:51:01;16.90;99.90
27779;DHT22;30234;48.090;11.464;2023-07-13T21:55:02;16.80;99.90
27779;DHT22;30234;48.090;11.464;2023-07-13T22:03:40;16.50;99.90
27779;DHT22;30234;48.090;11.464;2023-07-13T22:07:41;16.50;99.90
27779;DHT22;30234;48.090;11.464;2023-07-13T22:11:44;16.40;99.90
27779;DHT22;30234;48.090;11.464;2023-07-13T22:15:45;16.30;99.90
27779;DHT22;30234;48.090;11.464;2023-07-13T22:19:46;16.40;99.90
27779;DHT22;30234;48.090;11.464;2023-07-13T22:23:47;16.30;99.90
27779;DHT22;30234;48.090;11.464;2023-07-13T22:27:49;16.20;99.90
27779;DHT22;30234;48.090;11.464;2023-07-13T22:31:50;16.10;99.90
27779;DHT22;30234;48.090;11.464;2023-07-13T22:35:52;16.10;99.90
27779;DHT22;30234;48.090;11.464;2023-07-13T22:39:53;16.10;99.90
27779;DHT22;30234;48.090;11.464;2023-07-13T22:43:54;16.00;99.90
27779;DHT22;30234;48.090;11.464;2023-07-13T22:47:54;15.90;99.90
27779;DHT22;30234;48.090;11.464;2023-07-13T22:51:57;15.90;99.90
27779;DHT22;30234;48.090;11.464;2023-07-13T22:56:00;15.70;99.90
27779;DHT22;30234;48.090;11.464;2023-07-13T23:00:02;15.70;99.90
27779;DHT22;30234;48.090;11.464;2023-07-13T23:04:17;15.50;99.90
27779;DHT22;30234;48.090;11.464;2023-07-13T23:08:25;15.40;99.90
27779;DHT22;30234;48.090;11.464;2023-07-13T23:12:25;15.40;99.90
27779;DHT22;30234;48.090;11.464;2023-07-13T23:16:31;15.40;99.90
27779;DHT22;30234;48.090;11.464;2023-07-13T23:20:33;15.40;99.90
27779;DHT22;30234;48.090;11.464;2023-07-13T23:24:35;15.40;99.90
27779;DHT22;30234;48.090;11.464;2023-07-13T23:28:36;15.30;99.90
27779;DHT22;30234;48.090;11.464;2023-07-13T23:32:37;15.40;99.90
27779;DHT22;30234;48.090;11.464;2023-07-13T23:36:38;15.40;99.90
27779;DHT22;30234;48.090;11.464;2023-07-13T23:40:39;15.50;99.90
27779;DHT22;30234;48.090;11.464;2023-07-13T23:44:40;15.60;99.90
27779;DHT22;30234;48.090;11.464;2023-07-13T23:48:41;15.70;99.90
27779;DHT22;30234;48.090;11.464;2023-07-13T23:52:43;15.90;99.90
27779;DHT22;30234;48.090;11.464;2023-07-13T23:56:44;16.00;99.90
